Time;durP1;ratioP1;P1;durP2;ratioP2;P2;SDS_P1;SDS_P2;PMS_P1;PMS_P2;Temp;Humidity;BMP_temperature;BMP_pressure;BME280_temperature;BME280_humidity;BME280_pressure;Samples;Min_cycle;Max_cycle;Signal;HPM_P1;HPM_P2
2021/05/01 00:00:21;;;;;;;13.90;12.70;;;;;;;;;;5109204;28;20422;-74
2021/05/01 00:02:47;;;;;;;14.10;12.70;;;;;;;;;;5108547;28;20433;-74
2021/05/01 00:05:13;;;;;;;14.70;13.40;;;;;;;;;;5112862;28;20214;-74
2021/05/01 00:07:39;;;;;;;13.68;12.38;;;;;;;;;;5114293;28;20403;-72
2021/05/01 00:10:06;;;;;;;13.70;12.30;;;;;;;;;;5114184;28;20170;-73
2021/05/01 00:12:32;;;;;;;14.07;12.68;;;;;;;;;;5114253;28;20176;-72
2021/05/01 00:14:58;;;;;;;14.70;13.20;;;;;;;;;;5116055;27;20585;-73
2021/05/01 00:17:24;;;;;;;13.63;12.43;;;;;;;;;;5113764;28;20440;-73
2021/05/01 00:19:50;;;;;;;13.10;11.80;;;;;;;;;;5114100;28;20507;-73
2021/05/01 00:22:16;;;;;;;14.23;12.82;;;;;;;;;;5113904;28;20412;-73
2021/05/01 00:24:43;;;;;;;13.50;12.20;;;;;;;;;;5113865;28;20258;-74
2021/05/01 00:27:09;;;;;;;13.23;12.02;;;;;;;;;;5114132;28;20559;-73
2021/05/01 00:29:35;;;;;;;12.90;11.60;;;;;;;;;;5113652;28;20178;-74
2021/05/01 00:32:02;;;;;;;11.95;10.85;;;;;;;;;;5114054;28;20405;-73
2021/05/01 00:34:27;;;;;;;13.55;12.30;;;;;;;;;;5113769;28;20179;-74
2021/05/01 00:36:54;;;;;;;13.20;11.87;;;;;;;;;;5114025;28;20186;-73
2021/05/01 00:39:19;;;;;;;13.00;11.75;;;;;;;;;;5113920;28;20412;-73
2021/05/01 00:41:46;;;;;;;13.27;12.07;;;;;;;;;;5113854;28;20504;-73
2021/05/01 00:44:12;;;;;;;12.38;11.20;;;;;;;;;;5113481;28;20407;-74
2021/05/01 00:46:38;;;;;;;12.43;11.32;;;;;;;;;;5113659;28;20194;-73
2021/05/01 00:49:05;;;;;;;12.73;11.30;;;;;;;;;;5113864;28;20243;-73
2021/05/01 00:51:32;;;;;;;12.35;11.15;;;;;;;;;;5113595;28;20418;-73
2021/05/01 00:53:58;;;;;;;12.15;10.95;;;;;;;;;;5106090;28;20183;-73
2021/05/01 00:56:24;;;;;;;12.52;11.23;;;;;;;;;;5112576;28;20247;-73
2021/05/01 00:58:50;;;;;;;12.17;11.07;;;;;;;;;;5110628;28;20198;-73
2021/05/01 01:01:19;;;;;;;12.70;11.60;;;;;;;;;;5110916;28;20414;-74
2021/05/01 01:03:46;;;;;;;11.60;10.45;;;;;;;;;;5111782;28;20435;-73
2021/05/01 01:06:13;;;;;;;12.13;11.02;;;;;;;;;;5104674;28;20265;-74
2021/05/01 01:08:40;;;;;;;12.57;11.38;;;;;;;;;;5112932;28;20190;-73
2021/05/01 01:11:06;;;;;;;12.23;10.93;;;;;;;;;;5113561;28;20174;-74
2021/05/01 01:13:32;;;;;;;12.48;11.27;;;;;;;;;;5116422;28;20253;-73
2021/05/01 01:15:58;;;;;;;12.02;10.93;;;;;;;;;;5113276;28;20186;-74
2021/05/01 01:18:24;;;;;;;12.13;11.00;;;;;;;;;;5111093;28;20202;-74
2021/05/01 01:20:50;;;;;;;13.00;11.70;;;;;;;;;;5113307;28;20170;-74
2021/05/01 01:23:16;;;;;;;12.50;11.40;;;;;;;;;;5106308;28;20407;-73
2021/05/01 01:25:42;;;;;;;13.03;11.80;;;;;;;;;;5112822;28;20202;-74
2021/05/01 01:28:09;;;;;;;12.43;11.32;;;;;;;;;;5112997;28;20489;-74
2021/05/01 01:30:35;;;;;;;13.38;12.07;;;;;;;;;;5106114;28;20185;-74
2021/05/01 01:33:08;;;;;;;11.80;10.75;;;;;;;;;;5107176;28;20200;-73
2021/05/01 01:35:35;;;;;;;12.15;11.02;;;;;;;;;;5111433;28;20178;-74
2021/05/01 01:38:01;;;;;;;11.57;10.57;;;;;;;;;;5112470;28;20202;-74
2021/05/01 01:40:27;;;;;;;12.32;11.23;;;;;;;;;;5112877;28;20249;-74
2021/05/01 01:42:53;;;;;;;11.88;10.77;;;;;;;;;;5111197;28;20231;-72
2021/05/01 01:45:21;;;;;;;11.52;10.52;;;;;;;;;;5109487;28;20183;-73
2021/05/01 01:47:47;;;;;;;11.95;10.65;;;;;;;;;;5112353;28;20220;-73
2021/05/01 01:50:15;;;;;;;12.32;11.18;;;;;;;;;;5112939;28;20253;-72
2021/05/01 01:52:41;;;;;;;12.27;11.05;;;;;;;;;;5110742;28;20663;-74
2021/05/01 01:55:08;;;;;;;11.80;10.70;;;;;;;;;;5126090;28;20174;-74
2021/05/01 01:57:34;;;;;;;11.98;10.85;;;;;;;;;;5110184;28;20484;-73
2021/05/01 02:00:00;;;;;;;12.60;11.30;;;;;;;;;;5099435;28;20171;-73
2021/05/01 02:02:27;;;;;;;11.98;10.75;;;;;;;;;;5103125;28;20426;-73
2021/05/01 02:04:53;;;;;;;12.05;10.85;;;;;;;;;;5105923;28;20170;-72
2021/05/01 02:07:19;;;;;;;11.77;10.57;;;;;;;;;;5108413;28;20237;-72
2021/05/01 02:09:45;;;;;;;11.80;10.67;;;;;;;;;;5112762;28;20678;-73
2021/05/01 02:12:12;;;;;;;13.32;11.93;;;;;;;;;;5112698;28;20419;-73
2021/05/01 02:14:38;;;;;;;11.95;10.85;;;;;;;;;;5115040;28;20178;-74
2021/05/01 02:17:04;;;;;;;12.07;10.97;;;;;;;;;;5115961;28;20186;-73
2021/05/01 02:19:29;;;;;;;12.70;11.40;;;;;;;;;;5110511;28;20413;-72
2021/05/01 02:21:56;;;;;;;12.40;11.20;;;;;;;;;;5116330;28;20419;-72
2021/05/01 02:24:22;;;;;;;11.95;10.85;;;;;;;;;;5111895;28;20504;-73
2021/05/01 02:26:48;;;;;;;12.50;11.10;;;;;;;;;;5113771;28;20294;-73
2021/05/01 02:29:14;;;;;;;12.73;11.52;;;;;;;;;;5115112;27;20410;-73
2021/05/01 02:31:40;;;;;;;12.80;11.37;;;;;;;;;;5116418;28;21472;-73
2021/05/01 02:34:06;;;;;;;13.20;11.82;;;;;;;;;;5115664;28;20425;-73
2021/05/01 02:36:32;;;;;;;13.32;11.27;;;;;;;;;;5114604;28;20166;-73
2021/05/01 02:38:58;;;;;;;12.40;11.10;;;;;;;;;;5116062;28;20662;-74
2021/05/01 02:41:24;;;;;;;12.87;11.40;;;;;;;;;;5115905;28;20419;-73
2021/05/01 02:43:51;;;;;;;16.90;9.82;;;;;;;;;;5109645;28;20504;-72
2021/05/01 02:46:17;;;;;;;11.73;10.63;;;;;;;;;;5114178;28;20398;-73
2021/05/01 02:48:43;;;;;;;12.65;11.40;;;;;;;;;;5114244;27;20185;-73
2021/05/01 02:51:09;;;;;;;11.77;10.68;;;;;;;;;;5115867;28;20175;-73
2021/05/01 02:53:35;;;;;;;12.57;11.27;;;;;;;;;;5112436;28;20183;-74
2021/05/01 02:56:01;;;;;;;11.67;10.57;;;;;;;;;;5115863;27;20562;-72
2021/05/01 02:58:27;;;;;;;12.90;11.70;;;;;;;;;;5114270;28;20437;-73
2021/05/01 03:00:54;;;;;;;14.30;12.57;;;;;;;;;;5111645;28;20516;-73
2021/05/01 03:03:20;;;;;;;12.27;11.18;;;;;;;;;;5115301;28;20405;-73
2021/05/01 03:05:46;;;;;;;12.95;11.75;;;;;;;;;;5110574;28;20206;-73
2021/05/01 03:08:12;;;;;;;12.82;11.52;;;;;;;;;;5113650;28;20298;-73
2021/05/01 03:10:38;;;;;;;14.60;13.10;;;;;;;;;;5115742;27;20199;-74
2021/05/01 03:13:04;;;;;;;13.10;11.73;;;;;;;;;;5119038;27;20378;-74
2021/05/01 03:15:30;;;;;;;13.68;12.38;;;;;;;;;;5114194;28;20399;-73
2021/05/01 03:17:56;;;;;;;13.70;12.40;;;;;;;;;;5109704;28;20217;-73
2021/05/01 03:20:22;;;;;;;14.23;12.60;;;;;;;;;;5113996;28;20193;-74
2021/05/01 03:22:49;;;;;;;14.80;11.57;;;;;;;;;;5110332;28;20180;-73
2021/05/01 03:25:16;;;;;;;13.68;12.27;;;;;;;;;;5107095;28;20187;-74
2021/05/01 03:27:43;;;;;;;13.45;12.15;;;;;;;;;;5104664;28;20205;-73
2021/05/01 03:30:10;;;;;;;13.98;12.55;;;;;;;;;;5113535;28;20642;-73
2021/05/01 03:32:37;;;;;;;14.43;13.00;;;;;;;;;;5114219;28;20547;-73
2021/05/01 03:35:03;;;;;;;13.00;11.70;;;;;;;;;;5112253;28;20171;-73
2021/05/01 03:37:29;;;;;;;13.30;12.00;;;;;;;;;;5111969;28;20702;-74
2021/05/01 03:39:55;;;;;;;13.60;12.20;;;;;;;;;;5114872;28;20183;-73
2021/05/01 03:42:21;;;;;;;13.63;12.33;;;;;;;;;;5113311;28;20454;-73
2021/05/01 03:44:48;;;;;;;16.07;13.00;;;;;;;;;;5113161;28;20469;-73
2021/05/01 03:47:14;;;;;;;14.50;13.05;;;;;;;;;;5114209;28;20474;-74
2021/05/01 03:49:40;;;;;;;13.63;12.35;;;;;;;;;;5114675;28;20198;-74
2021/05/01 03:52:06;;;;;;;13.97;12.10;;;;;;;;;;5114386;28;20612;-72
2021/05/01 03:54:32;;;;;;;18.42;13.10;;;;;;;;;;5112715;28;20409;-73
2021/05/01 03:56:58;;;;;;;14.13;12.73;;;;;;;;;;5113172;28;20182;-73
2021/05/01 03:59:24;;;;;;;14.33;12.83;;;;;;;;;;5114710;28;20183;-73
2021/05/01 04:01:50;;;;;;;13.37;11.97;;;;;;;;;;5110133;28;20452;-74
2021/05/01 04:04:17;;;;;;;13.53;12.23;;;;;;;;;;5112749;28;20459;-73
2021/05/01 04:06:43;;;;;;;14.45;13.05;;;;;;;;;;5114540;28;20460;-74
2021/05/01 04:09:09;;;;;;;12.95;11.65;;;;;;;;;;5110771;28;20198;-73
2021/05/01 04:11:35;;;;;;;14.67;13.27;;;;;;;;;;5114547;28;20178;-73
2021/05/01 04:14:01;;;;;;;14.00;12.60;;;;;;;;;;5114305;27;20409;-73
2021/05/01 04:16:27;;;;;;;13.30;11.95;;;;;;;;;;5114280;28;20409;-73
2021/05/01 04:18:53;;;;;;;14.10;12.70;;;;;;;;;;5112259;28;20270;-74
2021/05/01 04:21:19;;;;;;;15.07;12.53;;;;;;;;;;5112409;28;20413;-73
2021/05/01 04:23:45;;;;;;;12.93;11.73;;;;;;;;;;5113839;28;20412;-73
2021/05/01 04:26:11;;;;;;;14.73;12.60;;;;;;;;;;5111946;28;20195;-73
2021/05/01 04:28:37;;;;;;;14.55;12.45;;;;;;;;;;5112564;28;20194;-75
2021/05/01 04:31:03;;;;;;;14.07;12.40;;;;;;;;;;5113889;28;20173;-74
2021/05/01 04:33:29;;;;;;;14.90;13.32;;;;;;;;;;5110832;28;20482;-74
2021/05/01 04:35:55;;;;;;;14.82;13.23;;;;;;;;;;5113694;28;20185;-73
2021/05/01 04:38:22;;;;;;;14.13;12.60;;;;;;;;;;5112963;28;20206;-73
2021/05/01 04:40:48;;;;;;;14.52;13.05;;;;;;;;;;5104774;28;20187;-73
2021/05/01 04:43:16;;;;;;;14.10;12.60;;;;;;;;;;5112690;28;20182;-73
2021/05/01 04:45:42;;;;;;;14.45;12.95;;;;;;;;;;5125405;27;20271;-73
2021/05/01 04:48:08;;;;;;;14.87;11.83;;;;;;;;;;5113326;28;20229;-73
2021/05/01 04:50:35;;;;;;;14.82;12.55;;;;;;;;;;5110021;28;20566;-72
2021/05/01 04:53:00;;;;;;;14.27;12.88;;;;;;;;;;5104782;28;20171;-73
2021/05/01 04:55:27;;;;;;;13.60;12.20;;;;;;;;;;5113501;28;20238;-73
2021/05/01 04:57:53;;;;;;;14.20;12.55;;;;;;;;;;5105667;28;20419;-73
2021/05/01 05:00:21;;;;;;;15.48;11.75;;;;;;;;;;5113386;28;20244;-73
2021/05/01 05:02:47;;;;;;;15.15;13.55;;;;;;;;;;5111639;28;20176;-74
2021/05/01 05:05:15;;;;;;;14.20;12.80;;;;;;;;;;5113489;28;20273;-73
2021/05/01 05:07:41;;;;;;;14.00;12.50;;;;;;;;;;5106415;28;20624;-73
2021/05/01 05:10:08;;;;;;;15.15;12.82;;;;;;;;;;5113698;28;20171;-73
2021/05/01 05:12:34;;;;;;;16.65;13.48;;;;;;;;;;5107078;28;20231;-73
2021/05/01 05:15:00;;;;;;;14.67;13.17;;;;;;;;;;5116408;27;20182;-72
2021/05/01 05:17:26;;;;;;;13.57;12.25;;;;;;;;;;5108588;28;20490;-74
2021/05/01 05:19:52;;;;;;;15.05;12.88;;;;;;;;;;5109886;28;20706;-74
2021/05/01 05:22:18;;;;;;;14.07;12.70;;;;;;;;;;5111290;28;20253;-74
2021/05/01 05:24:44;;;;;;;15.38;13.57;;;;;;;;;;5111498;28;20804;-74
2021/05/01 05:27:10;;;;;;;13.05;11.75;;;;;;;;;;5108964;28;20195;-74
2021/05/01 05:29:36;;;;;;;13.35;11.95;;;;;;;;;;5112671;28;20178;-74
2021/05/01 05:32:04;;;;;;;14.98;12.48;;;;;;;;;;5113111;28;20174;-71
2021/05/01 05:34:30;;;;;;;13.70;12.25;;;;;;;;;;5109383;28;20178;-72
2021/05/01 05:36:56;;;;;;;15.57;13.55;;;;;;;;;;5111135;28;20308;-73
2021/05/01 05:39:23;;;;;;;13.50;12.10;;;;;;;;;;5112833;28;20208;-73
2021/05/01 05:41:49;;;;;;;13.65;12.23;;;;;;;;;;5112753;28;20826;-74
2021/05/01 05:44:15;;;;;;;15.40;11.53;;;;;;;;;;5112866;28;20261;-74
2021/05/01 05:46:41;;;;;;;12.13;10.82;;;;;;;;;;5111524;28;20801;-74
2021/05/01 05:49:08;;;;;;;12.63;11.30;;;;;;;;;;5112765;28;20624;-73
2021/05/01 05:51:35;;;;;;;13.10;11.65;;;;;;;;;;5109598;28;20175;-73
2021/05/01 05:54:01;;;;;;;11.80;10.70;;;;;;;;;;5116696;28;20257;-73
2021/05/01 05:56:27;;;;;;;12.38;11.18;;;;;;;;;;5111695;28;20171;-74
2021/05/01 05:58:54;;;;;;;11.98;10.77;;;;;;;;;;5127975;27;20247;-73
2021/05/01 06:01:20;;;;;;;11.30;10.23;;;;;;;;;;5116711;28;20175;-72
2021/05/01 06:03:48;;;;;;;12.93;11.65;;;;;;;;;;5114928;28;20592;-73
2021/05/01 06:06:18;;;;;;;14.30;10.85;;;;;;;;;;5116222;27;20251;-73
2021/05/01 06:08:44;;;;;;;12.23;11.05;;;;;;;;;;5116375;27;20202;-73
2021/05/01 06:11:11;;;;;;;11.63;10.40;;;;;;;;;;5109921;28;20544;-72
2021/05/01 06:13:37;;;;;;;14.35;12.48;;;;;;;;;;5114937;28;20208;-72
2021/05/01 06:16:04;;;;;;;12.30;11.20;;;;;;;;;;5111413;28;20254;-72
2021/05/01 06:18:34;;;;;;;13.10;11.68;;;;;;;;;;5114024;28;20199;-73
2021/05/01 06:21:00;;;;;;;12.93;11.25;;;;;;;;;;5115038;28;20183;-73
2021/05/01 06:23:26;;;;;;;12.85;11.55;;;;;;;;;;5115491;28;20548;-74
2021/05/01 06:25:52;;;;;;;13.88;11.88;;;;;;;;;;5111555;28;20206;-74
2021/05/01 06:28:19;;;;;;;14.43;12.93;;;;;;;;;;5111918;28;20576;-74
2021/05/01 06:30:45;;;;;;;12.95;11.55;;;;;;;;;;5116115;27;20171;-72
2021/05/01 06:33:12;;;;;;;15.35;12.80;;;;;;;;;;5115724;28;20526;-73
2021/05/01 06:35:38;;;;;;;12.05;10.82;;;;;;;;;;5116289;28;20183;-74
2021/05/01 06:38:04;;;;;;;13.25;11.90;;;;;;;;;;5115839;28;20205;-74
2021/05/01 06:40:36;;;;;;;13.20;11.80;;;;;;;;;;5116215;28;20178;-74
2021/05/01 06:43:04;;;;;;;16.65;12.13;;;;;;;;;;5114026;28;20419;-74
2021/05/01 06:45:30;;;;;;;13.27;11.90;;;;;;;;;;5115761;28;20612;-74
2021/05/01 06:48:06;;;;;;;12.90;11.70;;;;;;;;;;5114822;28;20195;-73
2021/05/01 06:50:33;;;;;;;12.50;11.30;;;;;;;;;;5116079;27;20179;-73
2021/05/01 06:52:59;;;;;;;15.98;11.57;;;;;;;;;;5115753;28;20253;-74
2021/05/01 06:55:27;;;;;;;12.80;11.50;;;;;;;;;;5114235;28;20185;-73
2021/05/01 06:57:54;;;;;;;12.35;11.15;;;;;;;;;;5112508;28;20302;-74
2021/05/01 07:00:21;;;;;;;11.90;10.70;;;;;;;;;;5111247;28;20198;-74
2021/05/01 07:02:48;;;;;;;12.35;10.85;;;;;;;;;;5114921;28;20171;-73
2021/05/01 07:05:15;;;;;;;13.02;11.73;;;;;;;;;;5115279;28;20563;-73
2021/05/01 07:07:41;;;;;;;12.65;11.35;;;;;;;;;;5115101;28;20209;-72
2021/05/01 07:10:08;;;;;;;11.80;10.20;;;;;;;;;;5106082;28;20289;-73
2021/05/01 07:12:34;;;;;;;12.07;10.88;;;;;;;;;;5109865;28;20183;-75
2021/05/01 07:15:04;;;;;;;18.33;15.95;;;;;;;;;;5118057;27;20168;-73
2021/05/01 07:17:31;;;;;;;12.35;10.43;;;;;;;;;;5114892;28;20198;-73
2021/05/01 07:19:59;;;;;;;12.15;10.95;;;;;;;;;;5112890;28;20557;-74
2021/05/01 07:22:24;;;;;;;12.20;10.90;;;;;;;;;;5105160;28;20178;-73
2021/05/01 07:24:50;;;;;;;12.20;10.90;;;;;;;;;;5107841;28;20585;-73
2021/05/01 07:27:16;;;;;;;12.30;11.10;;;;;;;;;;5103265;28;20832;-73
2021/05/01 07:29:45;;;;;;;12.35;11.15;;;;;;;;;;5112108;28;20928;-73
2021/05/01 07:32:14;;;;;;;13.90;10.55;;;;;;;;;;5115400;28;20178;-72
2021/05/01 07:34:49;;;;;;;11.15;9.98;;;;;;;;;;5114550;28;20175;-73
2021/05/01 07:37:16;;;;;;;11.45;10.25;;;;;;;;;;5110713;28;20662;-73
2021/05/01 07:39:43;;;;;;;11.10;10.00;;;;;;;;;;5110587;28;20185;-74
2021/05/01 07:42:10;;;;;;;11.05;10.02;;;;;;;;;;5110525;28;20186;-72
2021/05/01 07:44:38;;;;;;;11.65;10.45;;;;;;;;;;5114546;28;20223;-73
2021/05/01 07:47:05;;;;;;;11.52;10.43;;;;;;;;;;5111783;28;20357;-73
2021/05/01 07:49:31;;;;;;;11.00;9.90;;;;;;;;;;5114628;28;20198;-73
2021/05/01 07:51:57;;;;;;;11.10;9.95;;;;;;;;;;5113355;28;20527;-73
2021/05/01 07:54:23;;;;;;;11.43;10.32;;;;;;;;;;5114237;28;20191;-74
2021/05/01 07:56:49;;;;;;;12.60;10.43;;;;;;;;;;5109210;28;20179;-74
2021/05/01 07:59:15;;;;;;;10.77;9.75;;;;;;;;;;5112861;28;20764;-74
2021/05/01 08:01:44;;;;;;;11.30;10.03;;;;;;;;;;5114075;28;20252;-73
2021/05/01 08:04:10;;;;;;;10.88;9.88;;;;;;;;;;5107927;28;20481;-74
2021/05/01 08:06:37;;;;;;;10.48;9.50;;;;;;;;;;5114319;28;20603;-74
2021/05/01 08:09:03;;;;;;;10.30;9.30;;;;;;;;;;5114058;28;20193;-73
2021/05/01 08:11:29;;;;;;;13.13;10.00;;;;;;;;;;5113982;28;20558;-75
2021/05/01 08:13:55;;;;;;;11.53;10.43;;;;;;;;;;5115873;28;20258;-74
2021/05/01 08:16:21;;;;;;;12.17;10.90;;;;;;;;;;5114114;28;20466;-74
2021/05/01 08:18:47;;;;;;;12.80;10.60;;;;;;;;;;5113963;28;20433;-75
2021/05/01 08:21:13;;;;;;;11.70;10.60;;;;;;;;;;5113831;28;20936;-75
2021/05/01 08:23:39;;;;;;;11.45;10.32;;;;;;;;;;5112610;28;20174;-75
2021/05/01 08:26:06;;;;;;;13.77;11.80;;;;;;;;;;5113839;28;20659;-74
2021/05/01 08:28:32;;;;;;;11.10;10.20;;;;;;;;;;5113792;28;20532;-74
2021/05/01 08:30:58;;;;;;;10.85;9.85;;;;;;;;;;5114013;28;20182;-73
2021/05/01 08:33:24;;;;;;;11.05;9.95;;;;;;;;;;5113502;28;20181;-74
2021/05/01 08:35:51;;;;;;;12.15;10.45;;;;;;;;;;5113848;28;20194;-73
2021/05/01 08:38:20;;;;;;;10.95;10.05;;;;;;;;;;5113307;28;20200;-73
2021/05/01 08:40:46;;;;;;;11.48;10.38;;;;;;;;;;5113676;28;20201;-73
2021/05/01 08:43:12;;;;;;;11.32;10.25;;;;;;;;;;5113598;28;20227;-72
2021/05/01 08:45:38;;;;;;;11.40;10.40;;;;;;;;;;5113538;28;20186;-73
2021/05/01 08:48:04;;;;;;;11.48;10.38;;;;;;;;;;5113276;28;20432;-76
2021/05/01 08:50:38;;;;;;;11.65;10.30;;;;;;;;;;5113457;28;20179;-75
2021/05/01 08:53:06;;;;;;;10.40;9.40;;;;;;;;;;5113384;28;20684;-74
2021/05/01 08:55:35;;;;;;;10.25;9.35;;;;;;;;;;5113452;28;20166;-75
2021/05/01 08:58:01;;;;;;;11.98;10.40;;;;;;;;;;5113396;28;20227;-73
2021/05/01 09:00:27;;;;;;;10.90;9.93;;;;;;;;;;5113631;28;20174;-74
2021/05/01 09:02:54;;;;;;;11.10;10.10;;;;;;;;;;5113442;28;20696;-75
2021/05/01 09:05:21;;;;;;;11.43;10.13;;;;;;;;;;5113188;28;20514;-75
2021/05/01 09:07:47;;;;;;;10.87;9.90;;;;;;;;;;5103649;28;20460;-74
2021/05/01 09:10:13;;;;;;;11.23;10.17;;;;;;;;;;5113399;28;20499;-75
2021/05/01 09:12:39;;;;;;;11.37;10.27;;;;;;;;;;5114137;28;20836;-75
2021/05/01 09:15:07;;;;;;;11.05;9.98;;;;;;;;;;5115668;27;20420;-74
2021/05/01 09:17:33;;;;;;;10.93;10.03;;;;;;;;;;5112830;28;20194;-74
2021/05/01 09:20:10;;;;;;;10.50;9.40;;;;;;;;;;5113142;28;20412;-74
2021/05/01 09:22:54;;;;;;;10.05;9.15;;;;;;;;;;5112888;28;20174;-73
2021/05/01 09:25:21;;;;;;;14.00;9.85;;;;;;;;;;5115593;28;20206;-74
2021/05/01 09:27:59;;;;;;;9.85;8.85;;;;;;;;;;5116996;28;20273;-75
2021/05/01 09:30:27;;;;;;;10.90;9.95;;;;;;;;;;5117163;28;20258;-74
2021/05/01 09:32:52;;;;;;;10.88;9.98;;;;;;;;;;5115646;28;20177;-74
2021/05/01 09:35:19;;;;;;;9.80;8.90;;;;;;;;;;5117407;28;20175;-76
2021/05/01 09:37:46;;;;;;;10.05;9.15;;;;;;;;;;5117056;28;20440;-75
2021/05/01 09:40:12;;;;;;;10.53;9.53;;;;;;;;;;5117230;28;20206;-75
2021/05/01 09:42:38;;;;;;;10.83;9.83;;;;;;;;;;5117048;28;20416;-74
2021/05/01 09:45:06;;;;;;;11.20;9.90;;;;;;;;;;5116836;28;20410;-75
2021/05/01 09:47:32;;;;;;;10.47;9.47;;;;;;;;;;5116504;28;20457;-74
2021/05/01 09:49:57;;;;;;;9.67;8.87;;;;;;;;;;5117265;28;20887;-75
2021/05/01 09:52:24;;;;;;;10.57;9.57;;;;;;;;;;5116959;28;20904;-75
2021/05/01 09:54:51;;;;;;;10.60;9.70;;;;;;;;;;5116790;28;20795;-74
2021/05/01 09:57:21;;;;;;;9.83;8.87;;;;;;;;;;5115559;28;20548;-75
2021/05/01 09:59:48;;;;;;;10.10;9.30;;;;;;;;;;5116916;28;20418;-74
2021/05/01 10:02:14;;;;;;;9.83;9.13;;;;;;;;;;5116631;28;20419;-73
2021/05/01 10:04:43;;;;;;;9.97;9.17;;;;;;;;;;5117115;28;20795;-75
2021/05/01 10:07:13;;;;;;;10.00;9.23;;;;;;;;;;5116562;28;20467;-75
2021/05/01 10:09:41;;;;;;;10.10;9.40;;;;;;;;;;5116621;28;20405;-75
2021/05/01 10:12:10;;;;;;;9.70;9.00;;;;;;;;;;5116651;28;20495;-76
2021/05/01 10:14:44;;;;;;;10.33;9.53;;;;;;;;;;5121131;27;20404;-75
2021/05/01 10:17:29;;;;;;;9.77;9.07;;;;;;;;;;5116188;28;20408;-76
2021/05/01 10:20:02;;;;;;;9.60;8.90;;;;;;;;;;5116518;28;20491;-75
2021/05/01 10:22:35;;;;;;;9.47;8.83;;;;;;;;;;5116571;28;20456;-76
2021/05/01 10:25:03;;;;;;;9.13;8.53;;;;;;;;;;5115924;28;20845;-74
2021/05/01 10:27:42;;;;;;;9.50;8.90;;;;;;;;;;5116167;28;20495;-76
2021/05/01 10:30:41;;;;;;;10.47;9.77;;;;;;;;;;5114025;28;20832;-76
2021/05/01 10:35:57;;;;;;;11.07;10.00;;;;;;;;;;5116100;28;20412;-73
2021/05/01 10:38:23;;;;;;;10.53;9.90;;;;;;;;;;5115870;28;20904;-75
2021/05/01 10:40:59;;;;;;;10.43;9.73;;;;;;;;;;5116149;28;20457;-74
2021/05/01 10:43:26;;;;;;;9.50;8.90;;;;;;;;;;5115912;28;20418;-77
2021/05/01 10:45:55;;;;;;;9.40;8.80;;;;;;;;;;5115892;28;20482;-76
2021/05/01 10:48:21;;;;;;;9.20;8.50;;;;;;;;;;5106852;28;20424;-74
2021/05/01 10:51:05;;;;;;;9.93;9.23;;;;;;;;;;5116140;28;20405;-75
2021/05/01 10:53:32;;;;;;;9.40;8.80;;;;;;;;;;5115616;28;20400;-75
2021/05/01 10:55:58;;;;;;;8.70;8.20;;;;;;;;;;5116464;28;20440;-76
2021/05/01 10:58:35;;;;;;;9.00;8.37;;;;;;;;;;5115530;28;20473;-77
2021/05/01 11:01:01;;;;;;;9.20;8.60;;;;;;;;;;5115661;28;20432;-73
2021/05/01 11:03:28;;;;;;;8.03;7.43;;;;;;;;;;5115457;28;20416;-74
2021/05/01 11:05:57;;;;;;;9.40;8.77;;;;;;;;;;5115537;28;20620;-74
2021/05/01 11:08:29;;;;;;;9.23;8.73;;;;;;;;;;5114027;28;20444;-74
2021/05/01 11:10:55;;;;;;;9.67;8.97;;;;;;;;;;5115496;28;20469;-75
2021/05/01 11:13:24;;;;;;;9.47;8.80;;;;;;;;;;5118345;27;20487;-74
2021/05/01 11:15:51;;;;;;;10.80;10.00;;;;;;;;;;5115637;28;20400;-74
2021/05/01 11:18:20;;;;;;;9.80;9.20;;;;;;;;;;5114969;28;20932;-74
2021/05/01 11:20:47;;;;;;;11.20;10.40;;;;;;;;;;5115349;28;20415;-73
2021/05/01 11:23:14;;;;;;;10.57;9.77;;;;;;;;;;5114871;28;20834;-75
2021/05/01 11:25:41;;;;;;;10.30;9.57;;;;;;;;;;5115061;28;20409;-74
2021/05/01 11:28:08;;;;;;;10.47;9.70;;;;;;;;;;5114953;28;20429;-72
2021/05/01 11:30:34;;;;;;;10.20;9.57;;;;;;;;;;5113745;28;20571;-74
2021/05/01 11:33:03;;;;;;;10.33;9.53;;;;;;;;;;5114701;28;20903;-75
2021/05/01 11:35:29;;;;;;;11.00;10.20;;;;;;;;;;5115202;28;20435;-75
2021/05/01 11:37:59;;;;;;;10.60;9.80;;;;;;;;;;5114595;28;20974;-72
2021/05/01 11:40:29;;;;;;;10.27;9.47;;;;;;;;;;5115030;28;20444;-74
2021/05/01 11:42:56;;;;;;;11.63;10.63;;;;;;;;;;5114529;28;20742;-74
2021/05/01 11:45:32;;;;;;;11.40;10.50;;;;;;;;;;5114992;28;20447;-74
2021/05/01 11:48:05;;;;;;;10.83;10.03;;;;;;;;;;5113638;28;20512;-74
2021/05/01 11:50:36;;;;;;;13.57;12.47;;;;;;;;;;5114760;28;20412;-74
2021/05/01 11:53:20;;;;;;;12.07;11.07;;;;;;;;;;5114525;28;20403;-74
2021/05/01 11:55:58;;;;;;;12.13;11.13;;;;;;;;;;5114731;28;20400;-74
2021/05/01 11:58:35;;;;;;;12.97;11.80;;;;;;;;;;5113468;28;20932;-75
2021/05/01 12:01:24;;;;;;;11.87;10.90;;;;;;;;;;5114576;28;20888;-74
2021/05/01 12:03:58;;;;;;;13.13;12.03;;;;;;;;;;5114115;28;20545;-74
2021/05/01 12:06:33;;;;;;;13.47;12.17;;;;;;;;;;5114360;28;20501;-74
2021/05/01 12:09:11;;;;;;;15.23;12.10;;;;;;;;;;5114239;27;20428;-74
2021/05/01 12:11:37;;;;;;;12.60;11.60;;;;;;;;;;5114458;28;20405;-74
2021/05/01 12:14:07;;;;;;;11.87;10.93;;;;;;;;;;5117546;27;20488;-74
2021/05/01 12:16:33;;;;;;;13.50;12.20;;;;;;;;;;5114394;28;20920;-74
2021/05/01 12:18:59;;;;;;;13.00;11.90;;;;;;;;;;5113866;28;20435;-73
2021/05/01 12:21:28;;;;;;;13.77;12.47;;;;;;;;;;5114078;28;20420;-74
2021/05/01 12:23:56;;;;;;;15.70;14.40;;;;;;;;;;5113467;28;20488;-73
2021/05/01 12:26:35;;;;;;;15.60;14.20;;;;;;;;;;5114080;28;20464;-74
2021/05/01 12:29:23;;;;;;;14.02;12.70;;;;;;;;;;5105478;28;20442;-74
2021/05/01 12:31:56;;;;;;;14.07;12.88;;;;;;;;;;5111916;28;20582;-73
2021/05/01 12:34:42;;;;;;;14.38;13.18;;;;;;;;;;5106176;27;20187;-74
2021/05/01 12:37:10;;;;;;;15.35;13.95;;;;;;;;;;5102949;28;20711;-74
2021/05/01 12:39:37;;;;;;;13.80;12.52;;;;;;;;;;5109085;28;20198;-74
2021/05/01 12:42:17;;;;;;;13.80;12.50;;;;;;;;;;5106532;28;20179;-75
2021/05/01 12:44:46;;;;;;;14.18;12.95;;;;;;;;;;5107252;28;20627;-74
2021/05/01 12:47:12;;;;;;;15.50;14.02;;;;;;;;;;5108845;28;20213;-75
2021/05/01 12:49:39;;;;;;;14.60;13.27;;;;;;;;;;5109635;28;20174;-75
2021/05/01 12:52:09;;;;;;;15.48;13.98;;;;;;;;;;5109488;28;20410;-75
2021/05/01 12:54:58;;;;;;;16.95;15.18;;;;;;;;;;5109590;28;20638;-76
2021/05/01 12:57:34;;;;;;;15.30;13.80;;;;;;;;;;5105056;28;20215;-73
2021/05/01 13:00:19;;;;;;;16.30;14.60;;;;;;;;;;5109016;28;20198;-73
2021/05/01 13:03:05;;;;;;;15.30;13.80;;;;;;;;;;5108417;28;20183;-75
2021/05/01 13:05:33;;;;;;;18.23;16.13;;;;;;;;;;5109290;28;20907;-74
2021/05/01 13:07:59;;;;;;;19.02;17.08;;;;;;;;;;5105148;28;20230;-72
2021/05/01 13:10:26;;;;;;;18.25;16.40;;;;;;;;;;5109348;28;20594;-74
2021/05/01 13:13:03;;;;;;;17.05;15.23;;;;;;;;;;5109073;28;20171;-73
2021/05/01 13:15:31;;;;;;;20.67;18.40;;;;;;;;;;5105062;28;20576;-72
2021/05/01 13:18:05;;;;;;;20.92;18.55;;;;;;;;;;5105981;28;20202;-73
2021/05/01 13:20:31;;;;;;;21.17;18.92;;;;;;;;;;5109613;28;20201;-72
2021/05/01 13:23:00;;;;;;;19.10;17.02;;;;;;;;;;5104065;28;20179;-73
2021/05/01 13:25:26;;;;;;;22.25;18.05;;;;;;;;;;5105869;28;20186;-73
2021/05/01 13:27:54;;;;;;;19.33;17.10;;;;;;;;;;5104081;28;20233;-72
2021/05/01 13:30:20;;;;;;;20.08;17.98;;;;;;;;;;5108813;28;20182;-74
2021/05/01 13:32:46;;;;;;;18.45;16.45;;;;;;;;;;5106135;28;20173;-74
2021/05/01 13:35:13;;;;;;;19.25;17.25;;;;;;;;;;5108430;28;20530;-73
2021/05/01 13:37:39;;;;;;;18.67;16.55;;;;;;;;;;5108572;28;20230;-73
2021/05/01 13:40:07;;;;;;;16.05;14.38;;;;;;;;;;5107046;28;20558;-72
2021/05/01 13:42:38;;;;;;;16.77;15.07;;;;;;;;;;5121579;28;20444;-73
2021/05/01 13:45:05;;;;;;;18.63;14.70;;;;;;;;;;5104859;28;20213;-73
2021/05/01 13:47:35;;;;;;;17.08;14.02;;;;;;;;;;5106838;28;20702;-72
2021/05/01 13:50:20;;;;;;;16.30;14.70;;;;;;;;;;5109077;28;20179;-74
2021/05/01 13:52:47;;;;;;;15.10;13.60;;;;;;;;;;5107034;28;20695;-73
2021/05/01 13:55:29;;;;;;;16.05;14.48;;;;;;;;;;5108917;28;20183;-73
2021/05/01 13:58:00;;;;;;;14.75;13.30;;;;;;;;;;5108974;28;20547;-73
2021/05/01 14:00:27;;;;;;;15.15;13.65;;;;;;;;;;5109071;28;20720;-73
2021/05/01 14:02:54;;;;;;;17.00;14.77;;;;;;;;;;5108655;28;20670;-72
2021/05/01 14:05:24;;;;;;;15.70;14.13;;;;;;;;;;5102075;28;20194;-74
2021/05/01 14:07:51;;;;;;;14.55;13.05;;;;;;;;;;5103621;28;20293;-73
2021/05/01 14:10:18;;;;;;;13.50;12.20;;;;;;;;;;5105986;28;20185;-74
2021/05/01 14:12:45;;;;;;;12.32;11.23;;;;;;;;;;5112187;27;20547;-74
2021/05/01 14:15:20;;;;;;;12.40;11.20;;;;;;;;;;5114949;27;20171;-73
2021/05/01 14:17:47;;;;;;;12.13;11.02;;;;;;;;;;5111201;28;20221;-73
2021/05/01 14:20:15;;;;;;;13.77;12.48;;;;;;;;;;5112382;28;20182;-73
2021/05/01 14:22:42;;;;;;;14.40;13.05;;;;;;;;;;5111968;28;20179;-73
2021/05/01 14:25:09;;;;;;;12.63;11.45;;;;;;;;;;5112275;28;20648;-74
2021/05/01 14:27:42;;;;;;;11.90;10.80;;;;;;;;;;5111947;28;20210;-74